| time (UTC) | temp C | wind direction | speed KPH | gust KPH | rain 1hr cm | rain 24hr cm | rain mn cm | humidity % | barometer mb |
| 20260505174539 | 7 | 280 | 0.0 | 6.4 | 0.00 | 2.97 | 2.54 | 98 | 1016.4 |
| 20260505173034 | 7 | 291 | 1.6 | 6.4 | 0.00 | 2.97 | 2.54 | 98 | 1016.3 |
| 20260505171534 | 7 | 282 | 0.0 | 6.4 | 0.03 | 2.97 | 2.54 | 98 | 1016.3 |
| 20260505170031 | 7 | 301 | 4.8 | 9.7 | 0.03 | 2.97 | 2.54 | 98 | 1016.0 |
| 20260505164527 | 8 | 250 | 4.8 | 12.9 | 0.03 | 3.02 | 2.54 | 98 | 1015.9 |
| 20260505163025 | 8 | 235 | 4.8 | 8.0 | 0.03 | 3.02 | 2.54 | 98 | 1015.6 |
| 20260505161523 | 8 | 227 | 3.2 | 22.5 | 0.00 | 3.00 | 2.51 | 98 | 1015.5 |
| 20260505153024 | 8 | 204 | 4.8 | 19.3 | 0.00 | 3.30 | 2.51 | 98 | 1015.4 |
| 20260505151521 | 8 | 233 | 3.2 | 14.5 | 0.00 | 3.30 | 2.51 | 98 | 1015.5 |
| 20260505124516 | 8 | 299 | 6.4 | 19.3 | 0.03 | 4.24 | 2.49 | 99 | 1014.9 |
| 20260505123011 | 8 | 255 | 6.4 | 24.1 | 0.03 | 4.24 | 2.49 | 99 | 1014.8 |
| 20260505121514 | 8 | 259 | 4.8 | 20.9 | 0.28 | 4.24 | 2.49 | 99 | 1015.0 |
| 20260505120011 | 8 | 309 | 8.0 | 29.0 | 0.28 | 4.24 | 2.49 | 99 | 1014.8 |
| 20260505114510 | 8 | 299 | 12.9 | 25.7 | 0.25 | 4.29 | 2.46 | 99 | 1014.7 |
| 20260505113008 | 8 | 206 | 11.3 | 22.5 | 0.25 | 4.29 | 2.46 | 99 | 1014.7 |
| 20260505111507 | 8 | 230 | 6.4 | 19.3 | 0.00 | 4.04 | 2.21 | 99 | 1014.3 |
| 20260505101504 | 7 | 227 | 8.0 | 16.1 | 0.10 | 4.29 | 2.21 | 98 | 1014.6 |
| 20260505100004 | 7 | 232 | 8.0 | 19.3 | 0.13 | 4.29 | 2.21 | 98 | 1014.7 |
| 20260505094503 | 7 | 206 | 4.8 | 19.3 | 0.08 | 4.39 | 2.13 | 99 | 1014.6 |
| 20260505093002 | 7 | 219 | 4.8 | 27.4 | 0.10 | 4.39 | 2.13 | 99 | 1014.7 |
| 20260505091559 | 7 | 178 | 6.4 | 27.4 | 0.13 | 4.37 | 2.11 | 98 | 1014.4 |
| 20260505090100 | 7 | 196 | 14.5 | 27.4 | 0.15 | 4.34 | 2.08 | 98 | 1014.5 |
| 20260505084557 | 7 | 217 | 12.9 | 30.6 | 0.33 | 4.32 | 2.06 | 98 | 1014.4 |
| 20260505083108 | 7 | 255 | 9.7 | 27.4 | 0.30 | 4.29 | 2.03 | 99 | 1014.4 |
| 20260505081557 | 7 | 194 | 9.7 | 29.0 | 0.25 | 4.22 | 1.96 | 99 | 1014.3 |
| 20260505080054 | 7 | 184 | 9.7 | 30.6 | 0.28 | 4.19 | 1.93 | 98 | 1014.2 |
| 20260505074552 | 7 | 209 | 14.5 | 30.6 | 0.25 | 4.45 | 1.73 | 98 | 1014.1 |
| 20260505073055 | 7 | 245 | 6.4 | 25.7 | 0.41 | 4.45 | 1.73 | 99 | 1014.3 |
| 20260505071550 | 7 | 261 | 4.8 | 25.7 | 0.46 | 4.42 | 1.70 | 98 | 1014.1 |
| 20260505070052 | 7 | 259 | 9.7 | 25.7 | 0.53 | 4.34 | 1.63 | 98 | 1014.0 |
| 20260505064558 | 7 | 208 | 3.2 | 12.9 | 0.53 | 4.90 | 1.45 | 98 | 1013.9 |
| 20260505063052 | 7 | 178 | 9.7 | 25.7 | 0.51 | 4.75 | 1.32 | 99 | 1013.7 |
| 20260505061545 | 7 | 214 | 9.7 | 27.4 | 0.46 | 4.67 | 1.24 | 98 | 1013.3 |
| 20260505060044 | 7 | 236 | 6.4 | 17.7 | 0.28 | 4.50 | 1.07 | 99 | 1013.2 |
| 20260505054644 | 7 | 182 | 9.7 | 20.9 | 0.15 | 4.60 | 0.94 | 99 | 1013.3 |
| 20260505053041 | 7 | 229 | 6.4 | 25.7 | 0.03 | 4.47 | 0.81 | 99 | 1013.2 |
| 20260505051542 | 7 | 226 | 6.4 | 19.3 | 0.03 | 4.45 | 0.79 | 99 | 1013.0 |
| 20260505041548 | 7 | 103 | 6.4 | 22.5 | 0.00 | 4.42 | 0.76 | 98 | 1012.7 |
| 20260505040039 | 7 | 214 | 3.2 | 16.1 | 0.00 | 4.42 | 0.76 | 99 | 1012.6 |
| 20260505034541 | 7 | 199 | 4.8 | 17.7 | 0.05 | 4.42 | 0.76 | 99 | 1012.7 |
| 20260505033037 | 7 | 146 | 11.3 | 24.1 | 0.08 | 4.42 | 0.76 | 98 | 1012.6 |
| 20260505031536 | 7 | 176 | 9.7 | 25.7 | 0.25 | 4.42 | 0.76 | 98 | 1012.6 |
| 20260505030035 | 8 | 223 | 9.7 | 20.9 | 0.25 | 4.42 | 0.76 | 98 | 1012.3 |
| 20260505024542 | 8 | 230 | 4.8 | 20.9 | 0.20 | 4.37 | 0.71 | 98 | 1012.2 |
| 20260505023034 | 7 | 260 | 11.3 | 24.1 | 0.20 | 4.34 | 0.69 | 98 | 1012.4 |
| 20260505021537 | 7 | 240 | 3.2 | 14.5 | 0.05 | 4.17 | 0.51 | 98 | 1012.2 |
| 20260505020031 | 7 | 229 | 8.0 | 19.3 | 0.10 | 4.17 | 0.51 | 98 | 1012.5 |
| 20260505014532 | 7 | 136 | 8.0 | 19.3 | 0.13 | 4.17 | 0.51 | 98 | 1012.6 |
| 20260505013029 | 8 | 207 | 4.8 | 24.1 | 0.20 | 4.14 | 0.48 | 98 | 1012.3 |
| 20260505011524 | 7 | 213 | 11.3 | 24.1 | 0.25 | 4.11 | 0.46 | 98 | 1012.5 |
| 20260505010022 | 7 | 187 | 9.7 | 20.9 | 0.23 | 4.06 | 0.41 | 98 | 1012.5 |
| 20260505004522 | 7 | 200 | 3.2 | 20.9 | 0.20 | 4.04 | 0.38 | 98 | 1012.5 |
| 20260505003018 | 7 | 213 | 3.2 | 17.7 | 0.10 | 3.94 | 0.28 | 98 | 1012.8 |
| 20260505001516 | 7 | 190 | 11.3 | 29.0 | 0.05 | 3.86 | 0.20 | 98 | 1012.9 |
| 20260505000027 | 7 | 184 | 8.0 | 25.7 | 0.03 | 3.84 | 0.18 | 98 | 1013.0 |
| 20260504234509 | 7 | 134 | 4.8 | 16.1 | 0.03 | 3.84 | 0.18 | 98 | 1013.0 |
| 20260504233010 | 7 | 204 | 3.2 | 19.3 | 0.03 | 3.84 | 0.18 | 98 | 1013.2 |
| 20260504231521 | 7 | 207 | 3.2 | 20.9 | 0.08 | 3.81 | 0.15 | 98 | 1013.3 |
| 20260504230003 | 7 | 166 | 6.4 | 19.3 | 0.10 | 3.81 | 0.15 | 98 | 1013.4 |
| 20260504224603 | 7 | 206 | 4.8 | 24.1 | 0.15 | 3.89 | 0.15 | 98 | 1013.6 |
| 20260504223059 | 7 | 179 | 4.8 | 20.9 | 0.15 | 3.89 | 0.15 | 98 | 1013.6 |
| 20260504221602 | 8 | 194 | 6.4 | 16.1 | 0.08 | 3.81 | 0.08 | 98 | 1013.9 |
| 20260504220055 | 7 | 190 | 3.2 | 17.7 | 0.05 | 3.78 | 0.05 | 98 | 1014.1 |
| 20260504214550 | 8 | 159 | 4.8 | 19.3 | 0.03 | 3.73 | 0.00 | 98 | 1014.1 |
| 20260504213048 | 7 | 144 | 3.2 | 9.7 | 0.05 | 3.73 | 0.00 | 98 | 1014.2 |
| 20260504211551 | 7 | 182 | 6.4 | 22.5 | 0.05 | 3.73 | 0.00 | 98 | 1014.5 |
| 20260504204531 | 7 | 236 | 6.4 | 20.9 | 0.10 | 3.71 | 3.71 | 98 | 1014.8 |
| 20260504203034 | 7 | 197 | 8.0 | 25.7 | 0.13 | 3.68 | 3.68 | 98 | 1015.1 |
| 20260504201530 | 7 | 245 | 12.9 | 25.7 | 0.20 | 3.68 | 3.68 | 98 | 1014.9 |
| 20260504200029 | 7 | 223 | 3.2 | 12.9 | 0.13 | 3.61 | 3.61 | 97 | 1015.0 |
| 20260504194542 | 7 | 190 | 9.7 | 27.4 | 0.15 | 3.63 | 3.61 | 98 | 1015.1 |
| 20260504193030 | 7 | 230 | 3.2 | 12.9 | 0.08 | 3.56 | 3.53 | 97 | 1015.1 |
| 20260504191532 | 7 | 80 | 4.8 | 12.9 | 0.03 | 3.51 | 3.48 | 97 | 1015.0 |
| 20260504190031 | 7 | 204 | 1.6 | 12.9 | 0.03 | 3.51 | 3.48 | 98 | 1015.2 |
| 20260504184533 | 7 | 226 | 8.0 | 19.3 | 0.00 | 3.61 | 3.45 | 97 | 1015.2 |
| 20260504183024 | 7 | 196 | 6.4 | 16.1 | 0.00 | 3.61 | 3.45 | 97 | 1015.1 |
| 20260504181523 | 8 | 328 | 9.7 | 29.0 | 0.00 | 3.61 | 3.45 | 98 | 1015.0 |